Time;durP1;ratioP1;P1;durP2;ratioP2;P2;SDS_P1;SDS_P2;PMS_P1;PMS_P2;Temp;Humidity;BMP_temperature;BMP_pressure;BME280_temperature;BME280_humidity;BME280_pressure;Samples;Min_cycle;Max_cycle;Signal;HPM_P1;HPM_P2
2020/12/20 00:01:57;;;;;;;11.82;10.65;;;;;;;6.90;66.65;100534.25;9768646;28;20585;-67
2020/12/20 00:06:58;;;;;;;11.90;10.70;;;;;;;6.75;66.77;100519.31;9776111;28;20924;-66
2020/12/20 00:11:59;;;;;;;13.15;11.88;;;;;;;6.82;66.78;100526.78;9766636;28;20059;-66
2020/12/20 00:17:02;;;;;;;13.52;12.13;;;;;;;6.88;66.47;100517.63;9769392;28;20581;-66
2020/12/20 00:22:09;;;;;;;13.45;12.13;;;;;;;6.84;67.01;100529.34;9816966;28;20054;-66
2020/12/20 00:27:10;;;;;;;11.90;10.77;;;;;;;6.77;66.90;100523.56;9786576;28;20072;-67
2020/12/20 00:32:12;;;;;;;12.23;11.02;;;;;;;6.70;67.29;100501.91;9800854;28;20074;-66
2020/12/20 00:37:13;;;;;;;12.55;11.15;;;;;;;6.75;66.89;100492.84;9806906;28;20074;-66
2020/12/20 00:42:15;;;;;;;12.32;11.10;;;;;;;6.77;67.68;100538.56;9806868;28;20146;-67
2020/12/20 00:47:16;;;;;;;12.57;11.32;;;;;;;6.72;68.21;100522.97;9713284;28;20057;-69
2020/12/20 00:52:18;;;;;;;12.57;11.38;;;;;;;6.87;68.29;100537.09;9716535;28;20051;-68
2020/12/20 00:57:19;;;;;;;12.90;11.50;;;;;;;6.96;68.33;100533.03;9765150;28;20047;-67
2020/12/20 01:02:20;;;;;;;12.77;11.63;;;;;;;6.99;68.28;100538.13;9733160;28;20052;-67
2020/12/20 01:07:22;;;;;;;12.43;11.23;;;;;;;6.96;67.93;100554.22;9724548;28;22158;-66
2020/12/20 01:12:24;;;;;;;12.38;11.18;;;;;;;6.96;68.07;100523.28;9706006;28;20091;-66
2020/12/20 01:17:25;;;;;;;11.85;10.75;;;;;;;6.97;68.03;100519.72;9681616;28;20055;-65
2020/12/20 01:22:26;;;;;;;12.15;10.95;;;;;;;6.90;67.87;100535.13;9705393;28;20853;-70
2020/12/20 01:27:27;;;;;;;12.60;11.40;;;;;;;6.89;68.58;100535.19;9756395;28;20054;-65
2020/12/20 01:32:29;;;;;;;13.75;12.35;;;;;;;6.80;68.61;100533.09;9772663;28;20145;-65
2020/12/20 01:37:31;;;;;;;13.65;12.32;;;;;;;6.79;69.80;100547.28;9807027;28;20106;-69
2020/12/20 01:42:33;;;;;;;14.63;13.15;;;;;;;6.80;70.42;100525.16;9812403;28;20059;-66
2020/12/20 01:47:34;;;;;;;14.23;12.82;;;;;;;6.67;70.21;100523.25;9806439;28;20056;-66
2020/12/20 01:52:36;;;;;;;14.27;12.88;;;;;;;6.54;70.54;100509.06;9765187;28;20055;-67
2020/12/20 01:57:37;;;;;;;14.18;12.70;;;;;;;6.46;70.13;100501.59;9768541;28;20150;-66
2020/12/20 02:02:38;;;;;;;14.63;13.18;;;;;;;6.39;70.95;100492.31;9764565;28;20059;-65
2020/12/20 02:07:40;;;;;;;13.60;12.30;;;;;;;6.39;70.75;100502.88;9769429;28;20662;-66
2020/12/20 02:12:41;;;;;;;14.10;12.73;;;;;;;6.28;70.82;100494.75;9781730;28;20551;-65
2020/12/20 02:17:43;;;;;;;14.65;13.25;;;;;;;6.37;70.57;100525.94;9797557;28;20079;-65
2020/12/20 02:22:54;;;;;;;15.48;13.98;;;;;;;6.24;70.56;100522.31;9813040;28;21928;-65
2020/12/20 02:27:55;;;;;;;;;;;;;;;6.27;70.72;100519.47;9803047;28;20097;-66
2020/12/20 02:32:56;;;;;;;13.13;11.77;;;;;;;6.08;70.60;100506.47;9819526;28;19979;-65
2020/12/20 02:37:58;;;;;;;15.38;13.88;;;;;;;6.16;70.67;100512.19;9820663;28;21379;-65
2020/12/20 02:42:59;;;;;;;13.88;12.57;;;;;;;6.12;70.44;100492.13;9793992;28;20060;-67
2020/12/20 02:48:00;;;;;;;13.95;12.48;;;;;;;6.23;70.43;100502.94;9771426;28;20055;-66
2020/12/20 02:53:08;;;;;;;14.07;12.70;;;;;;;6.09;70.17;100468.53;9811136;28;20748;-67
2020/12/20 02:58:09;;;;;;;13.50;12.07;;;;;;;5.98;70.13;100509.63;9804247;28;21035;-66
2020/12/20 03:03:11;;;;;;;13.40;12.05;;;;;;;6.04;71.05;100528.75;9820632;28;22621;-67
2020/12/20 03:08:12;;;;;;;12.95;11.57;;;;;;;6.08;70.20;100525.84;9825664;28;20133;-67
2020/12/20 03:13:13;;;;;;;12.75;11.45;;;;;;;6.03;70.70;100512.03;9809247;28;20110;-67
2020/12/20 03:18:15;;;;;;;13.10;11.80;;;;;;;5.92;70.86;100494.09;9817797;28;23383;-67
2020/12/20 03:23:31;;;;;;;13.00;11.20;;;;;;;6.13;70.80;100491.22;9812525;28;20054;-65
2020/12/20 03:28:33;;;;;;;13.10;11.73;;;;;;;5.99;70.61;100461.16;9802334;28;20050;-66
2020/12/20 03:33:35;;;;;;;12.77;11.48;;;;;;;6.18;70.64;100491.78;9784630;28;20529;-65
2020/12/20 03:38:36;;;;;;;12.75;11.35;;;;;;;6.28;70.06;100495.59;9778919;28;20054;-66
2020/12/20 03:43:38;;;;;;;13.23;11.82;;;;;;;6.23;70.03;100507.38;9810026;28;20372;-65
2020/12/20 03:48:41;;;;;;;13.32;11.85;;;;;;;6.17;69.71;100487.41;9804357;28;20050;-65
2020/12/20 03:53:47;;;;;;;13.68;12.27;;;;;;;6.14;69.57;100492.88;9794097;28;20149;-65
2020/12/20 03:58:48;;;;;;;14.18;12.75;;;;;;;6.10;70.16;100507.25;9800709;28;20561;-66
2020/12/20 04:03:50;;;;;;;14.50;13.10;;;;;;;6.21;69.72;100514.56;9832312;28;20080;-66
2020/12/20 04:08:51;;;;;;;14.95;13.43;;;;;;;6.15;69.96;100515.75;9798426;28;20117;-65
2020/12/20 04:13:52;;;;;;;14.65;13.15;;;;;;;6.01;69.85;100506.81;9827937;28;20055;-66
2020/12/20 04:18:53;;;;;;;14.23;12.73;;;;;;;6.09;70.05;100516.09;9835374;28;20078;-65
2020/12/20 04:24:04;;;;;;;13.73;12.32;;;;;;;6.12;70.23;100527.34;9790138;28;20494;-65
2020/12/20 04:29:05;;;;;;;13.82;12.43;;;;;;;5.90;71.32;100503.94;9796384;28;20128;-65
2020/12/20 04:34:06;;;;;;;13.82;12.43;;;;;;;5.86;71.52;100481.25;9776843;28;20058;-64
2020/12/20 04:39:07;;;;;;;14.05;12.55;;;;;;;6.09;72.25;100509.03;9798099;28;20050;-67
2020/12/20 04:44:08;;;;;;;15.75;14.15;;;;;;;5.95;72.82;100482.53;9774267;28;20086;-65
2020/12/20 04:49:11;;;;;;;15.30;13.77;;;;;;;6.03;73.04;100517.31;9774314;28;20109;-67
2020/12/20 04:54:25;;;;;;;15.43;13.83;;;;;;;5.95;73.50;100507.16;9783795;28;20114;-65
2020/12/20 04:59:26;;;;;;;15.55;13.95;;;;;;;5.91;74.12;100491.56;9802381;28;20164;-66
2020/12/20 05:04:28;;;;;;;14.98;13.38;;;;;;;6.03;74.03;100516.47;9774595;28;20058;-65
2020/12/20 05:09:29;;;;;;;14.05;12.65;;;;;;;5.92;73.99;100503.84;9786107;28;20055;-66
2020/12/20 05:14:33;;;;;;;15.63;14.02;;;;;;;5.96;74.59;100508.84;9775896;28;20145;-67
2020/12/20 05:19:34;;;;;;;15.48;13.88;;;;;;;5.94;74.26;100513.34;9779176;28;20407;-66
2020/12/20 05:24:47;;;;;;;15.93;14.23;;;;;;;5.88;75.28;100512.88;9781673;28;22359;-66
2020/12/20 05:29:52;;;;;;;15.53;13.97;;;;;;;5.82;75.25;100509.66;9763554;28;20125;-66
2020/12/20 05:35:05;;;;;;;16.02;14.15;;;;;;;5.96;74.77;100516.78;9791523;28;20061;-66
2020/12/20 05:40:21;;;;;;;15.38;13.68;;;;;;;5.96;75.12;100527.34;9778067;28;20463;-67
2020/12/20 05:45:25;;;;;;;15.10;13.30;;;;;;;5.98;74.36;100525.50;9806093;28;20109;-66
2020/12/20 05:50:28;;;;;;;15.07;13.57;;;;;;;6.08;74.71;100514.38;9771595;28;20051;-66
2020/12/20 05:55:40;;;;;;;15.50;13.23;;;;;;;6.00;74.49;100502.50;9777450;28;20058;-66
2020/12/20 06:00:43;;;;;;;16.02;14.18;;;;;;;5.99;74.31;100502.56;9793992;28;22321;-68
2020/12/20 06:05:46;;;;;;;15.40;13.80;;;;;;;6.12;74.51;100515.94;9791267;28;20099;-67
2020/12/20 06:10:53;;;;;;;14.45;12.95;;;;;;;6.01;74.55;100504.19;9781883;28;20090;-68
2020/12/20 06:15:56;;;;;;;15.38;13.43;;;;;;;6.01;74.62;100514.75;9795831;28;20063;-67
2020/12/20 06:21:00;;;;;;;15.10;13.50;;;;;;;6.03;74.21;100516.47;9786265;28;20159;-64
2020/12/20 06:26:03;;;;;;;14.65;13.15;;;;;;;5.98;74.53;100520.22;9790200;28;20469;-65
2020/12/20 06:31:04;;;;;;;13.95;12.55;;;;;;;6.13;74.33;100539.63;9768367;28;20069;-66
2020/12/20 06:36:10;;;;;;;14.43;12.93;;;;;;;6.07;74.44;100529.41;9837827;28;20089;-66
2020/12/20 06:41:31;;;;;;;15.35;13.68;;;;;;;6.08;74.37;100538.19;9761849;28;20174;-67
2020/12/20 06:46:39;;;;;;;14.48;13.00;;;;;;;6.01;74.44;100535.88;9857512;28;20465;-66
2020/12/20 06:51:41;;;;;;;14.70;13.00;;;;;;;5.99;74.71;100536.91;9827601;28;20054;-68
2020/12/20 06:56:43;;;;;;;15.93;14.23;;;;;;;5.85;74.75;100529.75;9814086;28;24758;-66
2020/12/20 07:01:44;;;;;;;15.25;13.75;;;;;;;5.97;74.83;100549.38;9742669;28;21826;-65
2020/12/20 07:07:08;;;;;;;15.60;14.00;;;;;;;5.99;75.21;100548.34;9781891;28;20075;-66
2020/12/20 07:12:32;;;;;;;15.10;13.50;;;;;;;5.98;75.50;100561.66;9822295;28;20077;-66
2020/12/20 07:17:45;;;;;;;16.15;13.25;;;;;;;5.97;75.90;100546.72;9780012;28;23893;-66
2020/12/20 07:22:47;;;;;;;14.02;12.32;;;;;;;5.96;75.28;100532.63;9778436;28;20145;-67
2020/12/20 07:27:49;;;;;;;16.50;14.50;;;;;;;6.05;75.39;100557.72;9776687;28;20058;-66
2020/12/20 07:32:50;;;;;;;15.45;13.23;;;;;;;5.91;74.88;100550.53;9779666;28;20054;-64
2020/12/20 07:37:52;;;;;;;15.18;13.13;;;;;;;5.97;74.97;100560.78;9749450;28;20070;-70
2020/12/20 07:43:01;;;;;;;15.07;13.43;;;;;;;6.04;75.44;100571.03;9786127;28;20144;-68
2020/12/20 07:48:02;;;;;;;15.07;13.35;;;;;;;6.12;76.00;100579.38;9799611;28;20648;-68
2020/12/20 07:53:03;;;;;;;14.57;12.93;;;;;;;6.08;76.16;100572.53;9780216;28;20102;-67
2020/12/20 07:58:05;;;;;;;16.02;13.85;;;;;;;6.01;76.15;100562.31;9786678;28;20054;-68
2020/12/20 08:03:06;;;;;;;15.88;14.18;;;;;;;6.03;76.57;100564.03;9789850;28;23798;-67
2020/12/20 08:08:07;;;;;;;16.67;13.82;;;;;;;6.06;76.75;100569.13;9787645;28;20110;-67
2020/12/20 08:13:09;;;;;;;16.17;14.48;;;;;;;6.08;77.24;100577.81;9987630;28;20445;-67
2020/12/20 08:18:10;;;;;;;19.23;14.90;;;;;;;6.09;76.92;100579.53;9771550;28;22622;-67
2020/12/20 08:23:12;;;;;;;16.95;14.20;;;;;;;6.08;77.36;100578.69;9774325;28;20093;-66
2020/12/20 08:28:13;;;;;;;15.63;13.80;;;;;;;6.00;77.11;100570.34;9779155;28;20456;-64
2020/12/20 08:33:14;;;;;;;14.20;12.80;;;;;;;6.13;76.93;100587.22;9792597;28;20173;-66
2020/12/20 08:38:16;;;;;;;15.05;13.50;;;;;;;5.95;77.13;100573.19;9797809;28;20089;-67
2020/12/20 08:43:18;;;;;;;15.82;14.23;;;;;;;5.98;76.92;100594.19;9750759;28;20702;-66
2020/12/20 08:48:20;;;;;;;15.73;14.07;;;;;;;6.09;76.81;100605.97;9815356;28;22748;-67
2020/12/20 08:53:23;;;;;;;16.67;14.45;;;;;;;6.07;77.46;100607.84;9780569;28;20950;-67
2020/12/20 08:58:24;;;;;;;14.60;13.00;;;;;;;6.09;77.25;100600.69;9783838;28;20059;-66
2020/12/20 09:03:25;;;;;;;17.52;15.15;;;;;;;6.14;77.49;100603.91;9790690;28;20069;-65
2020/12/20 09:08:33;;;;;;;16.17;13.57;;;;;;;6.14;77.44;100595.97;9812102;28;20054;-65
2020/12/20 09:13:34;;;;;;;16.10;14.52;;;;;;;6.21;77.37;100610.56;9762466;28;20062;-65
2020/12/20 09:18:36;;;;;;;15.32;13.82;;;;;;;6.23;77.51;100616.63;9786168;28;20093;-66
2020/12/20 09:23:38;;;;;;;13.80;12.38;;;;;;;6.13;76.88;100591.66;9827441;28;20066;-65
2020/12/20 09:28:40;;;;;;;14.82;13.23;;;;;;;6.28;76.89;100632.22;9825276;28;20113;-68
2020/12/20 09:33:47;;;;;;;15.30;13.68;;;;;;;6.21;77.46;100604.44;9780867;28;20078;-65
2020/12/20 09:39:01;;;;;;;14.98;13.48;;;;;;;6.36;77.35;100619.41;9728238;28;20486;-67
2020/12/20 09:44:02;;;;;;;15.50;13.90;;;;;;;6.40;76.66;100620.09;9750125;28;20086;-68
2020/12/20 09:49:04;;;;;;;15.40;13.80;;;;;;;6.41;76.81;100635.00;9774619;28;20125;-66
2020/12/20 09:54:06;;;;;;;19.02;17.13;;;;;;;6.48;77.08;100631.09;9771122;28;20055;-66
2020/12/20 09:59:07;;;;;;;15.20;13.65;;;;;;;6.53;77.05;100642.25;9769856;28;20062;-67
2020/12/20 10:04:08;;;;;;;14.80;13.30;;;;;;;6.53;76.72;100652.81;9757110;28;20556;-67
2020/12/20 10:09:09;;;;;;;13.85;12.45;;;;;;;6.57;76.88;100637.63;9761850;28;20074;-66
2020/12/20 10:14:11;;;;;;;14.45;12.80;;;;;;;6.67;76.68;100639.66;9859141;28;20051;-68
2020/12/20 10:19:12;;;;;;;14.55;13.05;;;;;;;6.73;76.65;100639.31;9789275;28;20522;-64
2020/12/20 10:24:13;;;;;;;14.55;12.98;;;;;;;6.76;76.31;100637.44;9696615;28;20477;-66
2020/12/20 10:29:17;;;;;;;14.50;13.00;;;;;;;6.65;76.32;100625.69;9678977;28;20069;-67
2020/12/20 10:34:21;;;;;;;13.20;11.83;;;;;;;6.78;75.66;100643.47;9689327;28;20055;-68
2020/12/20 10:39:22;;;;;;;30.77;26.35;;;;;;;6.78;75.68;100641.69;9709435;28;21443;-66
2020/12/20 10:44:24;;;;;;;17.30;15.60;;;;;;;6.83;76.01;100622.88;9734885;28;20055;-66
2020/12/20 10:49:25;;;;;;;14.77;13.38;;;;;;;6.79;75.32;100621.38;9726786;28;20662;-65
2020/12/20 10:54:30;;;;;;;16.67;15.07;;;;;;;6.67;76.54;100613.22;9731791;28;20054;-65
2020/12/20 10:59:32;;;;;;;;;;;;;;;6.71;76.01;100625.31;9711193;28;20061;-68
2020/12/20 11:04:33;;;;;;;14.38;13.02;;;;;;;6.79;76.24;100643.38;9707629;28;21852;-66
2020/12/20 11:09:35;;;;;;;15.65;14.07;;;;;;;6.83;75.43;100622.88;9719642;28;20056;-66
2020/12/20 11:14:36;;;;;;;14.93;13.48;;;;;;;6.71;75.69;100609.44;9768001;28;21696;-69
2020/12/20 11:19:37;;;;;;;15.20;13.60;;;;;;;6.88;76.32;100615.53;9778708;28;20055;-68
2020/12/20 11:24:39;;;;;;;36.90;26.65;;;;;;;6.90;76.51;100611.00;9751650;28;22707;-67
2020/12/20 11:29:40;;;;;;;14.63;13.00;;;;;;;6.86;75.78;100601.53;9768410;28;20189;-67
2020/12/20 11:34:41;;;;;;;16.90;15.18;;;;;;;6.80;76.27;100601.91;9792176;28;20054;-69
2020/12/20 11:39:43;;;;;;;16.90;15.07;;;;;;;6.76;77.15;100590.66;9805329;28;20050;-73
2020/12/20 11:44:44;;;;;;;16.25;14.55;;;;;;;6.66;77.77;100592.97;9798562;28;20504;-65
2020/12/20 11:49:46;;;;;;;15.63;13.48;;;;;;;6.78;76.92;100594.03;9790134;28;20121;-68
2020/12/20 11:54:47;;;;;;;18.23;14.40;;;;;;;6.57;77.61;100584.75;9800445;28;20050;-69
2020/12/20 11:59:48;;;;;;;16.42;14.55;;;;;;;6.77;77.83;100596.78;9815410;28;20108;-65
2020/12/20 12:04:50;;;;;;;16.23;14.40;;;;;;;6.82;77.35;100589.44;9834702;28;20427;-64
2020/12/20 12:09:51;;;;;;;15.00;13.40;;;;;;;6.90;77.49;100614.50;9789677;28;20394;-65
2020/12/20 12:14:52;;;;;;;16.98;15.25;;;;;;;6.79;77.76;100598.41;9763843;28;20058;-64
2020/12/20 12:19:55;;;;;;;16.45;14.65;;;;;;;6.90;77.98;100617.16;9769979;28;20110;-66
2020/12/20 12:24:56;;;;;;;16.95;15.18;;;;;;;6.83;78.05;100617.59;9791074;28;23191;-65
2020/12/20 12:29:59;;;;;;;17.17;15.38;;;;;;;6.85;78.23;100613.91;9809952;28;20132;-64
2020/12/20 12:35:00;;;;;;;17.50;14.93;;;;;;;6.90;78.31;100613.63;9859074;28;25107;-65
2020/12/20 12:40:03;;;;;;;16.08;14.38;;;;;;;6.99;78.99;100604.31;9762854;28;20280;-65
2020/12/20 12:45:04;;;;;;;17.55;15.38;;;;;;;6.93;78.53;100596.75;9753304;28;20082;-64
2020/12/20 12:50:05;;;;;;;16.10;14.43;;;;;;;6.97;78.78;100601.75;9756236;28;20146;-64
2020/12/20 12:55:06;;;;;;;17.00;14.65;;;;;;;6.98;79.16;100592.00;9770378;28;20188;-63
2020/12/20 13:00:08;;;;;;;16.73;14.98;;;;;;;6.94;78.72;100593.16;9789575;28;20095;-64
2020/12/20 13:05:09;;;;;;;15.73;14.02;;;;;;;6.98;78.97;100598.16;9782829;28;20061;-66
2020/12/20 13:10:10;;;;;;;15.85;14.18;;;;;;;6.95;79.34;100585.13;9792283;28;20108;-65
2020/12/20 13:15:12;;;;;;;15.18;13.43;;;;;;;7.09;78.85;100600.16;9779013;28;20058;-64
2020/12/20 13:20:14;;;;;;;16.58;14.75;;;;;;;7.04;78.42;100599.56;9793898;28;20070;-65
2020/12/20 13:25:15;;;;;;;15.75;14.15;;;;;;;7.02;78.80;100602.31;9769420;28;20053;-67
2020/12/20 13:30:17;;;;;;;15.80;14.15;;;;;;;7.05;78.98;100599.47;9792591;28;20280;-67
2020/12/20 13:35:19;;;;;;;16.92;14.38;;;;;;;7.06;78.51;100603.84;9770890;28;24177;-66
2020/12/20 13:40:21;;;;;;;15.82;14.23;;;;;;;7.10;78.94;100601.00;9769448;28;20464;-66
2020/12/20 13:45:22;;;;;;;17.73;15.80;;;;;;;7.04;78.83;100600.44;9770022;28;20059;-65
2020/12/20 13:50:25;;;;;;;18.13;16.23;;;;;;;7.07;78.69;100602.91;9760631;28;20181;-66
2020/12/20 13:55:26;;;;;;;17.73;15.95;;;;;;;7.12;79.21;100601.78;9783023;28;20072;-66
2020/12/20 14:00:28;;;;;;;16.35;14.18;;;;;;;7.06;79.07;100595.91;9769628;28;20240;-65
2020/12/20 14:05:29;;;;;;;17.17;15.30;;;;;;;7.10;78.99;100608.94;9808573;28;22986;-65
2020/12/20 14:10:31;;;;;;;16.40;14.70;;;;;;;7.06;79.39;100619.72;9787005;28;20185;-65
2020/12/20 14:15:33;;;;;;;16.52;14.70;;;;;;;6.99;79.61;100618.38;9841575;28;20054;-66
2020/12/20 14:20:34;;;;;;;18.00;16.08;;;;;;;7.03;79.69;100627.00;9764967;28;20054;-65
2020/12/20 14:25:35;;;;;;;17.50;14.90;;;;;;;7.01;79.75;100635.03;9813933;28;20184;-66
2020/12/20 14:30:37;;;;;;;16.52;14.45;;;;;;;6.91;79.80;100615.34;9802661;28;20235;-65
2020/12/20 14:35:39;;;;;;;16.38;14.25;;;;;;;6.95;79.62;100613.38;9806279;28;20055;-65
2020/12/20 14:40:41;;;;;;;15.85;13.93;;;;;;;7.03;79.74;100619.91;9786235;28;20129;-65
2020/12/20 14:45:42;;;;;;;14.48;12.93;;;;;;;7.01;79.31;100632.41;9806534;28;20061;-65
2020/12/20 14:50:45;;;;;;;15.77;13.40;;;;;;;7.00;79.46;100635.97;9794538;28;20174;-66
2020/12/20 14:55:47;;;;;;;16.10;14.27;;;;;;;7.07;79.57;100653.22;9757332;28;20190;-66
2020/12/20 15:00:49;;;;;;;15.98;14.25;;;;;;;7.11;79.78;100658.31;9784413;28;20551;-66
2020/12/20 15:05:50;;;;;;;17.20;15.27;;;;;;;7.07;79.45;100657.63;9804375;28;20066;-66
2020/12/20 15:10:52;;;;;;;17.30;14.52;;;;;;;7.04;79.83;100641.94;9759907;28;20062;-65
2020/12/20 15:15:54;;;;;;;17.30;14.50;;;;;;;7.10;79.89;100668.06;9758131;28;20055;-66
2020/12/20 15:20:55;;;;;;;16.70;13.85;;;;;;;7.15;80.16;100675.72;9768559;28;20070;-66
2020/12/20 15:25:57;;;;;;;17.00;15.20;;;;;;;7.18;79.77;100671.09;9771208;28;20580;-67
2020/12/20 15:30:59;;;;;;;16.38;14.57;;;;;;;7.20;80.08;100668.34;9755723;28;20156;-66
2020/12/20 15:36:01;;;;;;;17.40;15.10;;;;;;;7.19;79.64;100677.22;9735931;28;20051;-66
2020/12/20 15:41:03;;;;;;;18.65;16.75;;;;;;;7.22;79.45;100687.63;9797542;28;20054;-67
2020/12/20 15:46:07;;;;;;;18.33;15.55;;;;;;;7.18;80.12;100664.94;9766141;28;26154;-69
2020/12/20 15:51:08;;;;;;;16.88;15.20;;;;;;;7.15;79.65;100657.19;9765656;28;20476;-65
2020/12/20 15:56:10;;;;;;;17.50;15.70;;;;;;;7.28;79.70;100681.13;9770186;28;21357;-64
2020/12/20 16:01:11;;;;;;;16.52;14.82;;;;;;;7.19;79.57;100669.28;9789568;28;20826;-66
2020/12/20 16:06:13;;;;;;;17.92;15.93;;;;;;;7.13;80.20;100673.19;9796378;28;20815;-66
2020/12/20 16:11:15;;;;;;;20.38;17.02;;;;;;;7.05;80.42;100670.94;9759744;28;20063;-65
2020/12/20 16:16:23;;;;;;;61.28;51.75;;;;;;;7.16;80.24;100694.16;9761848;28;20062;-67
2020/12/20 16:21:27;;;;;;;28.90;25.13;;;;;;;7.16;80.39;100694.16;9783457;28;20054;-65
2020/12/20 16:26:29;;;;;;;19.50;17.33;;;;;;;7.17;80.37;100706.44;9752773;28;20051;-64
2020/12/20 16:31:39;;;;;;;19.67;17.88;;;;;;;7.19;80.76;100709.00;9765692;28;20257;-64
2020/12/20 16:36:46;;;;;;;18.48;16.60;;;;;;;7.26;79.74;100715.66;9783282;28;20077;-66
2020/12/20 16:41:48;;;;;;;23.85;21.42;;;;;;;7.21;79.97;100720.38;9750393;28;20056;-66
2020/12/20 16:46:51;;;;;;;19.77;17.73;;;;;;;7.19;80.24;100720.47;9774201;28;20059;-66
2020/12/20 16:51:56;;;;;;;19.90;17.90;;;;;;;7.07;80.58;100700.84;9805297;28;20598;-64
2020/12/20 16:56:57;;;;;;;30.00;27.23;;;;;;;7.16;80.20;100719.78;9800361;28;21036;-65
2020/12/20 17:01:59;;;;;;;24.40;22.13;;;;;;;7.14;80.26;100726.97;9811362;28;20077;-64
2020/12/20 17:07:21;;;;;;;20.27;18.20;;;;;;;7.11;80.79;100714.75;9805269;28;20121;-64
2020/12/20 17:12:27;;;;;;;17.48;15.57;;;;;;;7.18;81.16;100728.50;9803672;28;20556;-66
2020/12/20 17:17:34;;;;;;;18.13;16.27;;;;;;;7.13;80.84;100730.53;9775375;28;20062;-66
2020/12/20 17:22:40;;;;;;;17.50;15.73;;;;;;;7.22;80.83;100735.28;9761662;28;20055;-64
2020/12/20 17:27:47;;;;;;;17.00;14.85;;;;;;;7.11;80.49;100711.25;9789511;28;20182;-65
2020/12/20 17:32:53;;;;;;;18.27;15.13;;;;;;;7.14;81.22;100737.56;9766392;28;25877;-64
2020/12/20 17:37:54;;;;;;;19.10;15.57;;;;;;;7.03;81.09;100720.50;9765497;28;20122;-66
2020/12/20 17:43:01;;;;;;;18.15;15.93;;;;;;;7.18;80.87;100744.38;9778720;28;21179;-66
2020/12/20 17:48:08;;;;;;;18.10;15.98;;;;;;;7.11;80.83;100751.81;9773448;28;20074;-67
2020/12/20 17:53:15;;;;;;;17.27;14.95;;;;;;;7.12;81.01;100747.41;9772420;28;20125;-64
2020/12/20 17:58:16;;;;;;;17.92;16.02;;;;;;;7.04;81.26;100743.38;9767776;28;20050;-65
2020/12/20 18:03:17;;;;;;;18.52;15.80;;;;;;;7.03;81.20;100751.41;9761347;28;20545;-66
2020/12/20 18:08:18;;;;;;;19.70;15.57;;;;;;;6.82;81.48;100717.31;9793196;28;20083;-67
2020/12/20 18:13:20;;;;;;;16.70;14.93;;;;;;;6.98;80.59;100733.16;9760215;28;20061;-65
2020/12/20 18:18:21;;;;;;;42.88;30.67;;;;;;;7.15;80.37;100765.75;9770394;28;20051;-65
2020/12/20 18:23:22;;;;;;;16.70;14.38;;;;;;;7.11;80.43;100762.41;9771401;28;20055;-66
2020/12/20 18:28:23;;;;;;;21.88;17.70;;;;;;;7.10;80.73;100767.78;9736408;28;20793;-65
2020/12/20 18:33:27;;;;;;;17.92;16.13;;;;;;;7.12;80.52;100768.56;9732195;28;20051;-66
2020/12/20 18:38:28;;;;;;;19.08;15.45;;;;;;;7.14;80.84;100770.16;9761381;28;20525;-65
2020/12/20 18:43:29;;;;;;;17.30;14.95;;;;;;;7.22;80.29;100772.38;9783320;28;20043;-65
2020/12/20 18:48:31;;;;;;;17.40;15.45;;;;;;;7.15;80.20;100760.44;9791307;28;20062;-65
2020/12/20 18:53:33;;;;;;;24.70;16.55;;;;;;;7.37;79.75;100781.22;9766425;28;20062;-65
2020/12/20 18:58:34;;;;;;;19.95;15.48;;;;;;;7.24;80.24;100770.50;9768682;28;25885;-65
2020/12/20 19:03:36;;;;;;;19.52;15.90;;;;;;;7.29;79.99;100779.03;9762761;28;20082;-66
2020/12/20 19:08:37;;;;;;;19.55;14.90;;;;;;;7.20;80.29;100784.84;9763394;28;20082;-65
2020/12/20 19:13:39;;;;;;;19.67;16.52;;;;;;;7.15;80.57;100786.94;9747665;28;20051;-67
2020/12/20 19:18:40;;;;;;;23.50;16.23;;;;;;;7.12;81.01;100787.94;9760392;28;20117;-65
2020/12/20 19:23:42;;;;;;;21.92;15.88;;;;;;;7.13;80.75;100805.56;9840777;28;20050;-66
2020/12/20 19:28:43;;;;;;;21.58;18.35;;;;;;;7.07;81.15;100812.03;9808879;28;20055;-64
2020/12/20 19:33:45;;;;;;;22.88;18.90;;;;;;;7.12;81.63;100793.25;9790691;28;20051;-66
2020/12/20 19:38:46;;;;;;;22.63;17.48;;;;;;;7.13;81.34;100810.84;9797872;28;20054;-65
2020/12/20 19:43:48;;;;;;;23.70;16.60;;;;;;;7.12;81.64;100811.78;9820717;28;21786;-64
2020/12/20 19:48:49;;;;;;;27.48;18.55;;;;;;;7.12;81.95;100808.28;9783251;28;20050;-65
2020/12/20 19:53:55;;;;;;;22.73;16.35;;;;;;;7.11;82.35;100827.75;9791942;28;22434;-66
2020/12/20 19:58:56;;;;;;;25.13;17.60;;;;;;;7.20;82.17;100832.50;9756720;28;20127;-65
2020/12/20 20:03:58;;;;;;;22.90;18.10;;;;;;;7.16;82.21;100825.69;9783633;28;20102;-66
2020/12/20 20:09:00;;;;;;;25.02;18.35;;;;;;;7.18;82.33;100818.53;9774989;28;20146;-65
2020/12/20 20:14:02;;;;;;;23.65;17.45;;;;;;;7.18;82.80;100818.53;9743017;28;20059;-64
2020/12/20 20:19:07;;;;;;;21.45;17.35;;;;;;;7.25;82.44;100830.44;9742127;28;20054;-66
2020/12/20 20:24:10;;;;;;;22.58;16.92;;;;;;;7.22;82.30;100814.72;9743831;28;20051;-66
2020/12/20 20:29:11;;;;;;;23.45;18.85;;;;;;;7.23;82.31;100837.63;9853469;28;20106;-66
2020/12/20 20:34:13;;;;;;;29.30;21.98;;;;;;;7.21;82.60;100828.94;9744687;28;20063;-65
2020/12/20 20:39:16;;;;;;;30.50;19.50;;;;;;;7.22;82.63;100834.16;9759861;28;20618;-66
2020/12/20 20:44:17;;;;;;;27.73;19.30;;;;;;;7.22;82.96;100830.63;9762502;28;20070;-65
2020/12/20 20:49:19;;;;;;;27.55;19.48;;;;;;;7.23;83.26;100842.94;9740426;28;20413;-65
2020/12/20 20:54:21;;;;;;;28.13;19.33;;;;;;;7.21;83.73;100852.75;9759538;28;20141;-64
2020/12/20 20:59:22;;;;;;;45.60;32.75;;;;;;;7.25;83.72;100856.91;9742217;28;21952;-64
2020/12/20 21:04:23;;;;;;;27.05;20.17;;;;;;;7.21;84.28;100850.13;9745554;28;20068;-64
2020/12/20 21:09:25;;;;;;;31.13;19.48;;;;;;;7.15;84.14;100829.28;9687846;28;20177;-64
2020/12/20 21:14:26;;;;;;;26.95;19.17;;;;;;;7.26;84.16;100840.09;9778268;28;24344;-64
2020/12/20 21:19:27;;;;;;;28.15;19.25;;;;;;;7.29;84.33;100837.28;9782684;28;20201;-66
2020/12/20 21:24:28;;;;;;;26.10;18.67;;;;;;;7.33;84.21;100822.94;9773017;28;20114;-64
2020/12/20 21:29:31;;;;;;;28.75;18.98;;;;;;;7.32;84.22;100829.16;9732783;28;20055;-65
2020/12/20 21:34:32;;;;;;;25.33;19.08;;;;;;;7.30;84.38;100836.34;9739418;28;25230;-66
2020/12/20 21:39:33;;;;;;;29.02;20.27;;;;;;;7.31;84.70;100839.84;9730973;28;20059;-67
2020/12/20 21:44:34;;;;;;;32.55;19.73;;;;;;;7.33;84.55;100844.13;9758076;28;20137;-65
2020/12/20 21:49:36;;;;;;;36.30;20.52;;;;;;;7.26;84.80;100832.16;9980379;28;20054;-64
2020/12/20 21:54:38;;;;;;;30.50;20.83;;;;;;;7.39;84.85;100846.41;9777892;28;20066;-67
2020/12/20 21:59:40;;;;;;;31.02;21.42;;;;;;;7.30;85.06;100843.44;9802465;28;20129;-65
2020/12/20 22:04:41;;;;;;;27.60;19.73;;;;;;;7.36;85.47;100829.84;9758532;28;20055;-66
2020/12/20 22:09:43;;;;;;;30.88;20.27;;;;;;;7.38;85.26;100831.44;9779738;28;20050;-65
2020/12/20 22:14:44;;;;;;;33.78;21.05;;;;;;;7.38;85.09;100863.22;9782078;28;22632;-65
2020/12/20 22:19:46;;;;;;;28.30;20.60;;;;;;;7.34;84.99;100850.25;9792612;28;20058;-67
2020/12/20 22:24:47;;;;;;;41.17;22.48;;;;;;;7.35;84.64;100847.53;9770405;28;24137;-65
2020/12/20 22:29:48;;;;;;;33.03;22.42;;;;;;;7.30;85.25;100854.88;9763941;28;24652;-65
2020/12/20 22:34:55;;;;;;;41.15;22.65;;;;;;;7.36;85.39;100865.13;9750470;28;20109;-64
2020/12/20 22:39:57;;;;;;;53.05;22.70;;;;;;;7.37;85.91;100866.84;9757372;28;20050;-63
2020/12/20 22:44:59;;;;;;;43.25;22.27;;;;;;;7.38;85.92;100873.81;9790146;28;20062;-64
2020/12/20 22:50:03;;;;;;;37.40;22.45;;;;;;;7.39;86.06;100859.66;9760071;28;20102;-64
2020/12/20 22:55:04;;;;;;;33.03;21.80;;;;;;;7.45;86.41;100869.03;9760682;28;20581;-67
2020/12/20 23:00:10;;;;;;;32.13;20.63;;;;;;;7.47;86.25;100880.41;9755204;28;20082;-65
2020/12/20 23:05:13;;;;;;;45.42;22.88;;;;;;;7.39;85.91;100870.25;9775226;28;21344;-65
2020/12/20 23:10:15;;;;;;;45.95;20.98;;;;;;;7.44;86.24;100884.06;9729125;28;20070;-65